sensor_id;sensor_type;location;lat;lon;timestamp;P1;durP1;ratioP1;P2;durP2;ratioP2
9459;SDS011;4768;42.664;23.240;2023-06-05T00:01:46;1.20;;;0.50;;
9459;SDS011;4768;42.664;23.240;2023-06-05T00:04:13;0.40;;;0.40;;
9459;SDS011;4768;42.664;23.240;2023-06-05T00:06:40;0.40;;;0.40;;
9459;SDS011;4768;42.664;23.240;2023-06-05T00:09:07;0.20;;;0.20;;
9459;SDS011;4768;42.664;23.240;2023-06-05T00:11:34;0.17;;;0.17;;
9459;SDS011;4768;42.664;23.240;2023-06-05T00:14:02;0.00;;;0.00;;
9459;SDS011;4768;42.664;23.240;2023-06-05T00:16:29;1.37;;;0.73;;
9459;SDS011;4768;42.664;23.240;2023-06-05T00:18:55;0.10;;;0.10;;
9459;SDS011;4768;42.664;23.240;2023-06-05T00:21:22;1.10;;;0.70;;
9459;SDS011;4768;42.664;23.240;2023-06-05T00:23:50;0.00;;;0.00;;
9459;SDS011;4768;42.664;23.240;2023-06-05T00:26:17;0.13;;;0.13;;
9459;SDS011;4768;42.664;23.240;2023-06-05T00:28:43;0.03;;;0.03;;
9459;SDS011;4768;42.664;23.240;2023-06-05T00:31:11;0.53;;;0.20;;
9459;SDS011;4768;42.664;23.240;2023-06-05T00:33:39;0.10;;;0.10;;
9459;SDS011;4768;42.664;23.240;2023-06-05T00:36:05;0.40;;;0.40;;
9459;SDS011;4768;42.664;23.240;2023-06-05T00:38:32;0.27;;;0.27;;
9459;SDS011;4768;42.664;23.240;2023-06-05T00:40:59;0.00;;;0.00;;
9459;SDS011;4768;42.664;23.240;2023-06-05T00:43:26;0.40;;;0.30;;
9459;SDS011;4768;42.664;23.240;2023-06-05T00:45:54;0.97;;;0.73;;
9459;SDS011;4768;42.664;23.240;2023-06-05T00:48:29;0.10;;;0.10;;
9459;SDS011;4768;42.664;23.240;2023-06-05T00:50:57;0.10;;;0.10;;
9459;SDS011;4768;42.664;23.240;2023-06-05T00:53:25;0.00;;;0.00;;
9459;SDS011;4768;42.664;23.240;2023-06-05T00:55:53;0.40;;;0.13;;
9459;SDS011;4768;42.664;23.240;2023-06-05T00:58:22;0.20;;;0.20;;
9459;SDS011;4768;42.664;23.240;2023-06-05T01:00:49;0.33;;;0.33;;
9459;SDS011;4768;42.664;23.240;2023-06-05T01:03:20;0.10;;;0.10;;
9459;SDS011;4768;42.664;23.240;2023-06-05T01:05:49;0.37;;;0.37;;
9459;SDS011;4768;42.664;23.240;2023-06-05T01:08:16;0.53;;;0.20;;
9459;SDS011;4768;42.664;23.240;2023-06-05T01:10:50;0.20;;;0.20;;
9459;SDS011;4768;42.664;23.240;2023-06-05T01:13:23;0.20;;;0.20;;
9459;SDS011;4768;42.664;23.240;2023-06-05T01:15:52;0.10;;;0.10;;
9459;SDS011;4768;42.664;23.240;2023-06-05T01:18:21;0.00;;;0.00;;
9459;SDS011;4768;42.664;23.240;2023-06-05T01:20:51;0.13;;;0.10;;
9459;SDS011;4768;42.664;23.240;2023-06-05T01:23:22;0.13;;;0.13;;
9459;SDS011;4768;42.664;23.240;2023-06-05T01:25:53;0.20;;;0.20;;
9459;SDS011;4768;42.664;23.240;2023-06-05T01:28:23;0.03;;;0.03;;
9459;SDS011;4768;42.664;23.240;2023-06-05T01:30:57;0.07;;;0.07;;
9459;SDS011;4768;42.664;23.240;2023-06-05T01:33:31;0.10;;;0.10;;
9459;SDS011;4768;42.664;23.240;2023-06-05T01:36:06;0.20;;;0.20;;
9459;SDS011;4768;42.664;23.240;2023-06-05T01:38:35;0.40;;;0.40;;
9459;SDS011;4768;42.664;23.240;2023-06-05T01:41:04;0.77;;;0.50;;
9459;SDS011;4768;42.664;23.240;2023-06-05T01:43:32;0.67;;;0.47;;
9459;SDS011;4768;42.664;23.240;2023-06-05T01:46:00;0.43;;;0.30;;
9459;SDS011;4768;42.664;23.240;2023-06-05T01:48:27;0.63;;;0.50;;
9459;SDS011;4768;42.664;23.240;2023-06-05T01:50:56;0.37;;;0.37;;
9459;SDS011;4768;42.664;23.240;2023-06-05T01:53:23;0.57;;;0.37;;
9459;SDS011;4768;42.664;23.240;2023-06-05T01:55:51;0.80;;;0.47;;
9459;SDS011;4768;42.664;23.240;2023-06-05T01:58:19;0.40;;;0.40;;
9459;SDS011;4768;42.664;23.240;2023-06-05T02:00:47;0.90;;;0.50;;
9459;SDS011;4768;42.664;23.240;2023-06-05T02:03:14;0.50;;;0.50;;
9459;SDS011;4768;42.664;23.240;2023-06-05T02:05:41;0.63;;;0.17;;
9459;SDS011;4768;42.664;23.240;2023-06-05T02:08:08;0.07;;;0.07;;
9459;SDS011;4768;42.664;23.240;2023-06-05T02:10:35;0.20;;;0.20;;
9459;SDS011;4768;42.664;23.240;2023-06-05T02:13:03;0.10;;;0.10;;
9459;SDS011;4768;42.664;23.240;2023-06-05T02:15:30;1.10;;;0.30;;
9459;SDS011;4768;42.664;23.240;2023-06-05T02:17:59;0.50;;;0.33;;
9459;SDS011;4768;42.664;23.240;2023-06-05T02:20:28;0.30;;;0.30;;
9459;SDS011;4768;42.664;23.240;2023-06-05T02:22:54;0.33;;;0.13;;
9459;SDS011;4768;42.664;23.240;2023-06-05T02:25:22;0.83;;;0.83;;
9459;SDS011;4768;42.664;23.240;2023-06-05T02:27:52;0.40;;;0.40;;
9459;SDS011;4768;42.664;23.240;2023-06-05T02:30:20;0.40;;;0.40;;
9459;SDS011;4768;42.664;23.240;2023-06-05T02:32:47;0.20;;;0.20;;
9459;SDS011;4768;42.664;23.240;2023-06-05T02:35:14;0.40;;;0.40;;
9459;SDS011;4768;42.664;23.240;2023-06-05T02:37:41;0.13;;;0.13;;
9459;SDS011;4768;42.664;23.240;2023-06-05T02:40:08;0.53;;;0.20;;
9459;SDS011;4768;42.664;23.240;2023-06-05T02:42:38;0.93;;;0.43;;
9459;SDS011;4768;42.664;23.240;2023-06-05T02:45:06;0.03;;;0.03;;
9459;SDS011;4768;42.664;23.240;2023-06-05T02:47:36;0.20;;;0.20;;
9459;SDS011;4768;42.664;23.240;2023-06-05T02:50:03;0.37;;;0.37;;
9459;SDS011;4768;42.664;23.240;2023-06-05T02:52:30;0.40;;;0.40;;
9459;SDS011;4768;42.664;23.240;2023-06-05T02:54:59;0.10;;;0.10;;
9459;SDS011;4768;42.664;23.240;2023-06-05T02:57:27;0.17;;;0.17;;
9459;SDS011;4768;42.664;23.240;2023-06-05T02:59:54;0.40;;;0.37;;
9459;SDS011;4768;42.664;23.240;2023-06-05T03:02:20;0.00;;;0.00;;
9459;SDS011;4768;42.664;23.240;2023-06-05T03:04:49;0.10;;;0.10;;
9459;SDS011;4768;42.664;23.240;2023-06-05T03:07:21;0.87;;;0.83;;
9459;SDS011;4768;42.664;23.240;2023-06-05T03:09:47;0.53;;;0.53;;
9459;SDS011;4768;42.664;23.240;2023-06-05T03:12:14;0.47;;;0.37;;
9459;SDS011;4768;42.664;23.240;2023-06-05T03:14:41;0.87;;;0.83;;
9459;SDS011;4768;42.664;23.240;2023-06-05T03:17:08;1.70;;;1.60;;
9459;SDS011;4768;42.664;23.240;2023-06-05T03:19:34;0.60;;;0.60;;
9459;SDS011;4768;42.664;23.240;2023-06-05T03:22:02;0.37;;;0.37;;
9459;SDS011;4768;42.664;23.240;2023-06-05T03:24:30;1.50;;;0.53;;
9459;SDS011;4768;42.664;23.240;2023-06-05T03:26:57;0.23;;;0.23;;
9459;SDS011;4768;42.664;23.240;2023-06-05T03:29:23;0.20;;;0.20;;
9459;SDS011;4768;42.664;23.240;2023-06-05T03:31:51;0.60;;;0.60;;
9459;SDS011;4768;42.664;23.240;2023-06-05T03:34:18;0.30;;;0.30;;
9459;SDS011;4768;42.664;23.240;2023-06-05T03:36:44;0.13;;;0.10;;
9459;SDS011;4768;42.664;23.240;2023-06-05T03:39:14;0.00;;;0.00;;
9459;SDS011;4768;42.664;23.240;2023-06-05T03:41:41;0.70;;;0.50;;
9459;SDS011;4768;42.664;23.240;2023-06-05T03:44:08;0.20;;;0.20;;
9459;SDS011;4768;42.664;23.240;2023-06-05T03:46:35;0.07;;;0.07;;
9459;SDS011;4768;42.664;23.240;2023-06-05T03:49:02;0.40;;;0.27;;
9459;SDS011;4768;42.664;23.240;2023-06-05T03:51:34;0.00;;;0.00;;
9459;SDS011;4768;42.664;23.240;2023-06-05T03:54:01;0.30;;;0.30;;
9459;SDS011;4768;42.664;23.240;2023-06-05T03:56:30;0.10;;;0.10;;
9459;SDS011;4768;42.664;23.240;2023-06-05T03:58:59;0.10;;;0.10;;
9459;SDS011;4768;42.664;23.240;2023-06-05T04:01:34;0.27;;;0.20;;
9459;SDS011;4768;42.664;23.240;2023-06-05T04:04:02;0.20;;;0.20;;
9459;SDS011;4768;42.664;23.240;2023-06-05T04:06:30;0.00;;;0.00;;
9459;SDS011;4768;42.664;23.240;2023-06-05T04:08:57;0.10;;;0.10;;
9459;SDS011;4768;42.664;23.240;2023-06-05T04:11:24;0.00;;;0.00;;
9459;SDS011;4768;42.664;23.240;2023-06-05T04:13:53;0.00;;;0.00;;
9459;SDS011;4768;42.664;23.240;2023-06-05T04:16:20;0.30;;;0.30;;
9459;SDS011;4768;42.664;23.240;2023-06-05T04:18:47;0.47;;;0.20;;
9459;SDS011;4768;42.664;23.240;2023-06-05T04:21:14;0.77;;;0.53;;
9459;SDS011;4768;42.664;23.240;2023-06-05T04:23:40;0.30;;;0.30;;
9459;SDS011;4768;42.664;23.240;2023-06-05T04:26:07;0.70;;;0.70;;
9459;SDS011;4768;42.664;23.240;2023-06-05T04:28:34;0.50;;;0.50;;
9459;SDS011;4768;42.664;23.240;2023-06-05T04:31:02;0.20;;;0.20;;
9459;SDS011;4768;42.664;23.240;2023-06-05T04:33:29;0.70;;;0.47;;
9459;SDS011;4768;42.664;23.240;2023-06-05T04:35:55;0.27;;;0.27;;
9459;SDS011;4768;42.664;23.240;2023-06-05T04:38:22;0.57;;;0.47;;
9459;SDS011;4768;42.664;23.240;2023-06-05T04:40:49;0.57;;;0.47;;
9459;SDS011;4768;42.664;23.240;2023-06-05T04:43:16;0.30;;;0.20;;
9459;SDS011;4768;42.664;23.240;2023-06-05T04:45:43;0.40;;;0.40;;
9459;SDS011;4768;42.664;23.240;2023-06-05T04:48:12;0.40;;;0.40;;
9459;SDS011;4768;42.664;23.240;2023-06-05T04:50:39;1.27;;;0.63;;
9459;SDS011;4768;42.664;23.240;2023-06-05T04:53:07;0.10;;;0.10;;
9459;SDS011;4768;42.664;23.240;2023-06-05T04:55:34;0.23;;;0.23;;
9459;SDS011;4768;42.664;23.240;2023-06-05T04:58:00;0.97;;;0.47;;
9459;SDS011;4768;42.664;23.240;2023-06-05T05:00:27;1.63;;;0.87;;
9459;SDS011;4768;42.664;23.240;2023-06-05T05:02:54;1.10;;;0.87;;
9459;SDS011;4768;42.664;23.240;2023-06-05T05:05:23;0.53;;;0.50;;
9459;SDS011;4768;42.664;23.240;2023-06-05T05:07:49;1.63;;;0.77;;
9459;SDS011;4768;42.664;23.240;2023-06-05T05:10:16;1.33;;;0.97;;
9459;SDS011;4768;42.664;23.240;2023-06-05T05:12:43;2.00;;;1.00;;
9459;SDS011;4768;42.664;23.240;2023-06-05T05:15:10;0.23;;;0.23;;
9459;SDS011;4768;42.664;23.240;2023-06-05T05:17:37;0.33;;;0.33;;
9459;SDS011;4768;42.664;23.240;2023-06-05T05:20:03;1.17;;;0.97;;
9459;SDS011;4768;42.664;23.240;2023-06-05T05:22:33;1.10;;;1.10;;
9459;SDS011;4768;42.664;23.240;2023-06-05T05:25:00;0.67;;;0.67;;
9459;SDS011;4768;42.664;23.240;2023-06-05T05:27:26;0.57;;;0.57;;
9459;SDS011;4768;42.664;23.240;2023-06-05T05:29:53;1.00;;;0.87;;
9459;SDS011;4768;42.664;23.240;2023-06-05T05:32:20;16.53;;;1.50;;
9459;SDS011;4768;42.664;23.240;2023-06-05T05:34:47;2.07;;;0.90;;
9459;SDS011;4768;42.664;23.240;2023-06-05T05:37:15;0.40;;;0.40;;
9459;SDS011;4768;42.664;23.240;2023-06-05T05:39:44;1.07;;;1.00;;
9459;SDS011;4768;42.664;23.240;2023-06-05T05:42:10;0.83;;;0.83;;
9459;SDS011;4768;42.664;23.240;2023-06-05T05:44:37;0.80;;;0.80;;
9459;SDS011;4768;42.664;23.240;2023-06-05T05:47:07;1.40;;;0.53;;
9459;SDS011;4768;42.664;23.240;2023-06-05T05:49:34;4.93;;;1.07;;
9459;SDS011;4768;42.664;23.240;2023-06-05T05:52:00;1.43;;;0.80;;
9459;SDS011;4768;42.664;23.240;2023-06-05T05:54:27;1.00;;;0.73;;
9459;SDS011;4768;42.664;23.240;2023-06-05T05:56:55;2.67;;;1.40;;
9459;SDS011;4768;42.664;23.240;2023-06-05T05:59:22;2.80;;;0.60;;
9459;SDS011;4768;42.664;23.240;2023-06-05T06:01:48;1.37;;;0.60;;
9459;SDS011;4768;42.664;23.240;2023-06-05T06:04:16;3.77;;;1.07;;
9459;SDS011;4768;42.664;23.240;2023-06-05T06:06:43;1.17;;;0.83;;
9459;SDS011;4768;42.664;23.240;2023-06-05T06:09:13;0.57;;;0.57;;
9459;SDS011;4768;42.664;23.240;2023-06-05T06:11:41;0.73;;;0.73;;
9459;SDS011;4768;42.664;23.240;2023-06-05T06:14:10;1.10;;;0.57;;
9459;SDS011;4768;42.664;23.240;2023-06-05T06:16:37;0.70;;;0.70;;
9459;SDS011;4768;42.664;23.240;2023-06-05T06:19:04;1.40;;;1.27;;
9459;SDS011;4768;42.664;23.240;2023-06-05T06:21:31;0.47;;;0.47;;
9459;SDS011;4768;42.664;23.240;2023-06-05T06:23:58;1.77;;;1.03;;
9459;SDS011;4768;42.664;23.240;2023-06-05T06:26:25;0.40;;;0.40;;
9459;SDS011;4768;42.664;23.240;2023-06-05T06:28:52;1.30;;;0.77;;
9459;SDS011;4768;42.664;23.240;2023-06-05T06:31:24;0.50;;;0.50;;
9459;SDS011;4768;42.664;23.240;2023-06-05T06:33:50;0.30;;;0.30;;
9459;SDS011;4768;42.664;23.240;2023-06-05T06:36:17;2.83;;;0.70;;
9459;SDS011;4768;42.664;23.240;2023-06-05T06:38:45;0.93;;;0.33;;
9459;SDS011;4768;42.664;23.240;2023-06-05T06:41:11;0.73;;;0.73;;
9459;SDS011;4768;42.664;23.240;2023-06-05T06:43:38;0.50;;;0.30;;
9459;SDS011;4768;42.664;23.240;2023-06-05T06:46:05;1.10;;;0.40;;
9459;SDS011;4768;42.664;23.240;2023-06-05T06:48:33;3.80;;;1.47;;
9459;SDS011;4768;42.664;23.240;2023-06-05T06:51:00;0.57;;;0.57;;
9459;SDS011;4768;42.664;23.240;2023-06-05T06:53:28;2.50;;;1.03;;
9459;SDS011;4768;42.664;23.240;2023-06-05T06:55:55;2.53;;;1.10;;
9459;SDS011;4768;42.664;23.240;2023-06-05T06:58:22;0.90;;;0.77;;
9459;SDS011;4768;42.664;23.240;2023-06-05T07:00:49;2.63;;;0.53;;
9459;SDS011;4768;42.664;23.240;2023-06-05T07:03:16;1.27;;;1.00;;
9459;SDS011;4768;42.664;23.240;2023-06-05T07:05:44;2.00;;;0.93;;
9459;SDS011;4768;42.664;23.240;2023-06-05T07:08:10;0.67;;;0.67;;
9459;SDS011;4768;42.664;23.240;2023-06-05T07:10:37;2.10;;;1.00;;
9459;SDS011;4768;42.664;23.240;2023-06-05T07:13:05;0.63;;;0.57;;
9459;SDS011;4768;42.664;23.240;2023-06-05T07:15:32;0.53;;;0.53;;
9459;SDS011;4768;42.664;23.240;2023-06-05T07:17:59;0.43;;;0.43;;
9459;SDS011;4768;42.664;23.240;2023-06-05T07:20:26;1.23;;;0.77;;
9459;SDS011;4768;42.664;23.240;2023-06-05T07:22:54;0.83;;;0.83;;
9459;SDS011;4768;42.664;23.240;2023-06-05T07:25:21;2.27;;;1.03;;
9459;SDS011;4768;42.664;23.240;2023-06-05T07:27:50;0.80;;;0.80;;
9459;SDS011;4768;42.664;23.240;2023-06-05T07:30:16;1.20;;;1.10;;
9459;SDS011;4768;42.664;23.240;2023-06-05T07:32:43;0.60;;;0.60;;
9459;SDS011;4768;42.664;23.240;2023-06-05T07:35:10;0.93;;;0.77;;
9459;SDS011;4768;42.664;23.240;2023-06-05T07:37:39;4.53;;;1.13;;
9459;SDS011;4768;42.664;23.240;2023-06-05T07:40:08;1.30;;;0.90;;
9459;SDS011;4768;42.664;23.240;2023-06-05T07:42:35;1.30;;;1.13;;
9459;SDS011;4768;42.664;23.240;2023-06-05T07:45:02;2.07;;;1.67;;
9459;SDS011;4768;42.664;23.240;2023-06-05T07:47:29;1.37;;;1.27;;
9459;SDS011;4768;42.664;23.240;2023-06-05T07:49:56;2.70;;;1.30;;
9459;SDS011;4768;42.664;23.240;2023-06-05T07:52:24;1.23;;;1.13;;
9459;SDS011;4768;42.664;23.240;2023-06-05T07:54:51;0.97;;;0.67;;
9459;SDS011;4768;42.664;23.240;2023-06-05T07:57:19;1.60;;;1.37;;
9459;SDS011;4768;42.664;23.240;2023-06-05T07:59:46;0.73;;;0.73;;
9459;SDS011;4768;42.664;23.240;2023-06-05T08:02:14;1.50;;;1.17;;
9459;SDS011;4768;42.664;23.240;2023-06-05T08:04:41;0.70;;;0.70;;
9459;SDS011;4768;42.664;23.240;2023-06-05T08:07:08;0.98;;;0.82;;
9459;SDS011;4768;42.664;23.240;2023-06-05T08:09:35;5.60;;;1.10;;
9459;SDS011;4768;42.664;23.240;2023-06-05T08:12:02;2.83;;;1.23;;
9459;SDS011;4768;42.664;23.240;2023-06-05T08:14:31;3.20;;;1.23;;
9459;SDS011;4768;42.664;23.240;2023-06-05T08:16:58;1.20;;;0.93;;
9459;SDS011;4768;42.664;23.240;2023-06-05T08:19:25;1.35;;;1.05;;
9459;SDS011;4768;42.664;23.240;2023-06-05T08:21:52;1.27;;;1.25;;
9459;SDS011;4768;42.664;23.240;2023-06-05T08:24:21;3.78;;;1.73;;
9459;SDS011;4768;42.664;23.240;2023-06-05T08:26:48;2.10;;;1.27;;
9459;SDS011;4768;42.664;23.240;2023-06-05T08:29:15;0.80;;;0.80;;
9459;SDS011;4768;42.664;23.240;2023-06-05T08:31:43;1.95;;;1.08;;
9459;SDS011;4768;42.664;23.240;2023-06-05T08:34:10;1.83;;;1.05;;
9459;SDS011;4768;42.664;23.240;2023-06-05T08:36:36;1.02;;;0.93;;
9459;SDS011;4768;42.664;23.240;2023-06-05T08:39:03;0.40;;;0.40;;
9459;SDS011;4768;42.664;23.240;2023-06-05T08:41:30;3.88;;;0.40;;
9459;SDS011;4768;42.664;23.240;2023-06-05T08:44:00;0.23;;;0.23;;
9459;SDS011;4768;42.664;23.240;2023-06-05T08:46:27;0.63;;;0.55;;
9459;SDS011;4768;42.664;23.240;2023-06-05T08:48:57;1.35;;;0.52;;
9459;SDS011;4768;42.664;23.240;2023-06-05T08:51:28;2.50;;;1.00;;
9459;SDS011;4768;42.664;23.240;2023-06-05T08:53:56;0.88;;;0.88;;
9459;SDS011;4768;42.664;23.240;2023-06-05T08:56:29;1.10;;;1.00;;
9459;SDS011;4768;42.664;23.240;2023-06-05T08:58:56;0.90;;;0.60;;
9459;SDS011;4768;42.664;23.240;2023-06-05T09:01:24;1.08;;;0.57;;
9459;SDS011;4768;42.664;23.240;2023-06-05T09:03:50;1.20;;;0.52;;
9459;SDS011;4768;42.664;23.240;2023-06-05T09:06:19;1.40;;;0.40;;
9459;SDS011;4768;42.664;23.240;2023-06-05T09:08:46;0.25;;;0.25;;
9459;SDS011;4768;42.664;23.240;2023-06-05T09:11:22;0.95;;;0.93;;
9459;SDS011;4768;42.664;23.240;2023-06-05T09:13:50;1.27;;;0.63;;
9459;SDS011;4768;42.664;23.240;2023-06-05T09:16:19;1.38;;;0.52;;
9459;SDS011;4768;42.664;23.240;2023-06-05T09:18:53;0.85;;;0.85;;
9459;SDS011;4768;42.664;23.240;2023-06-05T09:21:22;1.40;;;0.77;;
9459;SDS011;4768;42.664;23.240;2023-06-05T09:23:54;1.33;;;0.75;;
9459;SDS011;4768;42.664;23.240;2023-06-05T09:26:45;0.22;;;0.22;;
9459;SDS011;4768;42.664;23.240;2023-06-05T09:29:13;0.60;;;0.60;;
9459;SDS011;4768;42.664;23.240;2023-06-05T09:31:42;1.20;;;0.82;;
9459;SDS011;4768;42.664;23.240;2023-06-05T09:34:09;1.33;;;0.85;;
9459;SDS011;4768;42.664;23.240;2023-06-05T09:36:41;0.82;;;0.63;;
9459;SDS011;4768;42.664;23.240;2023-06-05T09:39:14;0.28;;;0.28;;
9459;SDS011;4768;42.664;23.240;2023-06-05T09:41:41;1.40;;;1.30;;
9459;SDS011;4768;42.664;23.240;2023-06-05T09:44:09;2.60;;;0.68;;
9459;SDS011;4768;42.664;23.240;2023-06-05T09:46:37;0.93;;;0.85;;
9459;SDS011;4768;42.664;23.240;2023-06-05T09:49:17;0.95;;;0.80;;
9459;SDS011;4768;42.664;23.240;2023-06-05T09:51:46;13.25;;;9.52;;
9459;SDS011;4768;42.664;23.240;2023-06-05T09:54:13;14.15;;;11.80;;
9459;SDS011;4768;42.664;23.240;2023-06-05T09:56:41;14.13;;;11.80;;
9459;SDS011;4768;42.664;23.240;2023-06-05T09:59:16;15.70;;;11.55;;
9459;SDS011;4768;42.664;23.240;2023-06-05T10:01:46;16.55;;;12.07;;
9459;SDS011;4768;42.664;23.240;2023-06-05T10:04:15;17.27;;;12.45;;
9459;SDS011;4768;42.664;23.240;2023-06-05T10:06:49;20.88;;;12.13;;
9459;SDS011;4768;42.664;23.240;2023-06-05T10:09:16;18.70;;;10.80;;
9459;SDS011;4768;42.664;23.240;2023-06-05T10:11:44;15.43;;;11.27;;
9459;SDS011;4768;42.664;23.240;2023-06-05T10:14:14;13.85;;;10.18;;
9459;SDS011;4768;42.664;23.240;2023-06-05T10:16:41;14.88;;;10.20;;
9459;SDS011;4768;42.664;23.240;2023-06-05T10:19:09;14.93;;;10.85;;
9459;SDS011;4768;42.664;23.240;2023-06-05T10:21:37;13.30;;;10.98;;
9459;SDS011;4768;42.664;23.240;2023-06-05T10:24:06;14.50;;;9.82;;
9459;SDS011;4768;42.664;23.240;2023-06-05T10:26:40;16.20;;;9.88;;
9459;SDS011;4768;42.664;23.240;2023-06-05T10:29:27;14.73;;;9.85;;
9459;SDS011;4768;42.664;23.240;2023-06-05T10:32:16;12.52;;;9.13;;
9459;SDS011;4768;42.664;23.240;2023-06-05T10:34:51;11.35;;;9.40;;
9459;SDS011;4768;42.664;23.240;2023-06-05T10:37:39;11.73;;;8.48;;
9459;SDS011;4768;42.664;23.240;2023-06-05T10:40:15;12.35;;;8.25;;
9459;SDS011;4768;42.664;23.240;2023-06-05T10:42:45;11.48;;;8.48;;
9459;SDS011;4768;42.664;23.240;2023-06-05T10:45:12;9.10;;;7.60;;
9459;SDS011;4768;42.664;23.240;2023-06-05T10:47:47;11.40;;;7.32;;
9459;SDS011;4768;42.664;23.240;2023-06-05T10:50:25;9.02;;;7.45;;
9459;SDS011;4768;42.664;23.240;2023-06-05T10:52:56;7.53;;;6.13;;
9459;SDS011;4768;42.664;23.240;2023-06-05T10:55:26;7.70;;;6.68;;
9459;SDS011;4768;42.664;23.240;2023-06-05T10:58:03;9.43;;;7.18;;
9459;SDS011;4768;42.664;23.240;2023-06-05T11:00:34;9.90;;;7.82;;
9459;SDS011;4768;42.664;23.240;2023-06-05T11:03:02;10.98;;;7.57;;
9459;SDS011;4768;42.664;23.240;2023-06-05T11:05:31;8.07;;;7.15;;
9459;SDS011;4768;42.664;23.240;2023-06-05T11:16:27;8.68;;;6.63;;
9459;SDS011;4768;42.664;23.240;2023-06-05T11:18:54;7.80;;;6.65;;
9459;SDS011;4768;42.664;23.240;2023-06-05T11:22:06;8.80;;;6.68;;
9459;SDS011;4768;42.664;23.240;2023-06-05T11:24:34;7.43;;;6.20;;
9459;SDS011;4768;42.664;23.240;2023-06-05T11:27:03;8.43;;;6.22;;
9459;SDS011;4768;42.664;23.240;2023-06-05T11:29:31;8.85;;;6.28;;
9459;SDS011;4768;42.664;23.240;2023-06-05T11:31:58;8.25;;;6.15;;
9459;SDS011;4768;42.664;23.240;2023-06-05T11:34:25;8.50;;;6.95;;
9459;SDS011;4768;42.664;23.240;2023-06-05T11:36:55;7.82;;;6.60;;
9459;SDS011;4768;42.664;23.240;2023-06-05T11:39:23;8.38;;;5.80;;
9459;SDS011;4768;42.664;23.240;2023-06-05T11:41:54;6.13;;;5.53;;
9459;SDS011;4768;42.664;23.240;2023-06-05T11:44:32;6.30;;;5.57;;
9459;SDS011;4768;42.664;23.240;2023-06-05T11:47:00;6.53;;;5.32;;
9459;SDS011;4768;42.664;23.240;2023-06-05T11:49:28;6.40;;;5.38;;
9459;SDS011;4768;42.664;23.240;2023-06-05T11:51:59;6.40;;;5.57;;
9459;SDS011;4768;42.664;23.240;2023-06-05T11:54:26;7.72;;;5.07;;
9459;SDS011;4768;42.664;23.240;2023-06-05T11:56:57;5.93;;;4.90;;
9459;SDS011;4768;42.664;23.240;2023-06-05T11:59:27;6.25;;;4.90;;
9459;SDS011;4768;42.664;23.240;2023-06-05T12:01:55;6.97;;;4.63;;
9459;SDS011;4768;42.664;23.240;2023-06-05T12:04:22;8.13;;;5.10;;
9459;SDS011;4768;42.664;23.240;2023-06-05T12:06:49;5.47;;;4.97;;
9459;SDS011;4768;42.664;23.240;2023-06-05T12:09:16;6.10;;;5.35;;
9459;SDS011;4768;42.664;23.240;2023-06-05T12:11:43;6.32;;;5.20;;
9459;SDS011;4768;42.664;23.240;2023-06-05T12:14:11;7.95;;;5.03;;
9459;SDS011;4768;42.664;23.240;2023-06-05T12:16:39;6.00;;;5.32;;
9459;SDS011;4768;42.664;23.240;2023-06-05T12:19:12;6.40;;;4.85;;
9459;SDS011;4768;42.664;23.240;2023-06-05T12:21:42;6.35;;;4.90;;
9459;SDS011;4768;42.664;23.240;2023-06-05T12:24:09;5.75;;;4.78;;
9459;SDS011;4768;42.664;23.240;2023-06-05T12:26:49;5.97;;;4.82;;
9459;SDS011;4768;42.664;23.240;2023-06-05T12:29:18;8.18;;;5.03;;
9459;SDS011;4768;42.664;23.240;2023-06-05T12:31:46;8.40;;;4.95;;
9459;SDS011;4768;42.664;23.240;2023-06-05T12:34:15;6.25;;;4.10;;
9459;SDS011;4768;42.664;23.240;2023-06-05T12:36:42;5.28;;;4.70;;
9459;SDS011;4768;42.664;23.240;2023-06-05T12:39:09;6.28;;;4.70;;
9459;SDS011;4768;42.664;23.240;2023-06-05T12:41:37;5.50;;;4.82;;
9459;SDS011;4768;42.664;23.240;2023-06-05T12:44:05;5.70;;;4.65;;
9459;SDS011;4768;42.664;23.240;2023-06-05T12:46:34;7.65;;;4.95;;
9459;SDS011;4768;42.664;23.240;2023-06-05T12:49:02;6.38;;;5.05;;
9459;SDS011;4768;42.664;23.240;2023-06-05T12:51:32;5.68;;;4.45;;
9459;SDS011;4768;42.664;23.240;2023-06-05T12:53:59;6.28;;;4.65;;
9459;SDS011;4768;42.664;23.240;2023-06-05T12:56:26;5.20;;;4.38;;
9459;SDS011;4768;42.664;23.240;2023-06-05T12:58:54;4.55;;;4.15;;
9459;SDS011;4768;42.664;23.240;2023-06-05T13:01:22;4.70;;;4.20;;
9459;SDS011;4768;42.664;23.240;2023-06-05T13:03:49;6.75;;;4.47;;
9459;SDS011;4768;42.664;23.240;2023-06-05T13:06:16;7.18;;;4.32;;
9459;SDS011;4768;42.664;23.240;2023-06-05T13:08:45;7.25;;;4.90;;
9459;SDS011;4768;42.664;23.240;2023-06-05T13:11:12;5.82;;;4.60;;
9459;SDS011;4768;42.664;23.240;2023-06-05T13:13:40;7.15;;;4.40;;
9459;SDS011;4768;42.664;23.240;2023-06-05T13:16:06;5.75;;;4.43;;
9459;SDS011;4768;42.664;23.240;2023-06-05T13:18:34;5.00;;;4.32;;
9459;SDS011;4768;42.664;23.240;2023-06-05T13:21:02;7.43;;;4.70;;
9459;SDS011;4768;42.664;23.240;2023-06-05T13:23:29;5.75;;;4.65;;
9459;SDS011;4768;42.664;23.240;2023-06-05T13:25:57;6.60;;;4.30;;
9459;SDS011;4768;42.664;23.240;2023-06-05T13:28:24;4.85;;;4.10;;
9459;SDS011;4768;42.664;23.240;2023-06-05T13:30:50;7.30;;;4.50;;
9459;SDS011;4768;42.664;23.240;2023-06-05T13:33:18;9.07;;;4.30;;
9459;SDS011;4768;42.664;23.240;2023-06-05T13:35:45;7.25;;;4.40;;
9459;SDS011;4768;42.664;23.240;2023-06-05T13:38:12;4.97;;;4.47;;
9459;SDS011;4768;42.664;23.240;2023-06-05T13:40:39;5.15;;;4.28;;
9459;SDS011;4768;42.664;23.240;2023-06-05T13:43:07;4.90;;;4.38;;
9459;SDS011;4768;42.664;23.240;2023-06-05T13:45:34;5.30;;;3.80;;
9459;SDS011;4768;42.664;23.240;2023-06-05T13:48:01;5.20;;;4.55;;
9459;SDS011;4768;42.664;23.240;2023-06-05T13:50:27;4.72;;;4.07;;
9459;SDS011;4768;42.664;23.240;2023-06-05T13:52:54;4.75;;;4.25;;
9459;SDS011;4768;42.664;23.240;2023-06-05T13:55:21;5.45;;;4.20;;
9459;SDS011;4768;42.664;23.240;2023-06-05T13:57:48;4.78;;;4.15;;
9459;SDS011;4768;42.664;23.240;2023-06-05T14:00:17;4.22;;;3.80;;
9459;SDS011;4768;42.664;23.240;2023-06-05T14:02:44;6.97;;;3.92;;
9459;SDS011;4768;42.664;23.240;2023-06-05T14:05:12;5.28;;;4.00;;
9459;SDS011;4768;42.664;23.240;2023-06-05T14:07:38;7.50;;;4.43;;
9459;SDS011;4768;42.664;23.240;2023-06-05T14:10:06;6.25;;;4.32;;
9459;SDS011;4768;42.664;23.240;2023-06-05T14:12:33;5.85;;;4.30;;
9459;SDS011;4768;42.664;23.240;2023-06-05T14:15:00;4.45;;;4.00;;
9459;SDS011;4768;42.664;23.240;2023-06-05T14:17:28;6.43;;;4.05;;
9459;SDS011;4768;42.664;23.240;2023-06-05T14:19:55;5.25;;;4.50;;
9459;SDS011;4768;42.664;23.240;2023-06-05T14:22:22;7.15;;;4.40;;
9459;SDS011;4768;42.664;23.240;2023-06-05T14:24:49;5.97;;;4.60;;
9459;SDS011;4768;42.664;23.240;2023-06-05T14:27:15;6.18;;;4.18;;
9459;SDS011;4768;42.664;23.240;2023-06-05T14:29:43;6.40;;;4.57;;
9459;SDS011;4768;42.664;23.240;2023-06-05T14:32:10;6.60;;;4.63;;
9459;SDS011;4768;42.664;23.240;2023-06-05T14:34:38;6.60;;;4.60;;
9459;SDS011;4768;42.664;23.240;2023-06-05T14:37:05;5.70;;;4.93;;
9459;SDS011;4768;42.664;23.240;2023-06-05T14:39:32;5.97;;;4.78;;
9459;SDS011;4768;42.664;23.240;2023-06-05T14:41:58;6.78;;;5.22;;
9459;SDS011;4768;42.664;23.240;2023-06-05T14:44:26;6.40;;;4.55;;
9459;SDS011;4768;42.664;23.240;2023-06-05T14:46:53;10.60;;;5.05;;
9459;SDS011;4768;42.664;23.240;2023-06-05T14:49:21;4.85;;;4.45;;
9459;SDS011;4768;42.664;23.240;2023-06-05T14:51:49;7.68;;;5.55;;
9459;SDS011;4768;42.664;23.240;2023-06-05T14:54:16;7.90;;;5.18;;
9459;SDS011;4768;42.664;23.240;2023-06-05T14:56:43;7.03;;;5.03;;
9459;SDS011;4768;42.664;23.240;2023-06-05T14:59:12;5.70;;;5.20;;
9459;SDS011;4768;42.664;23.240;2023-06-05T15:01:40;5.50;;;4.30;;
9459;SDS011;4768;42.664;23.240;2023-06-05T15:04:07;7.75;;;4.93;;
9459;SDS011;4768;42.664;23.240;2023-06-05T15:06:34;7.25;;;5.68;;
9459;SDS011;4768;42.664;23.240;2023-06-05T15:09:02;8.10;;;5.88;;
9459;SDS011;4768;42.664;23.240;2023-06-05T15:11:29;6.90;;;5.03;;
9459;SDS011;4768;42.664;23.240;2023-06-05T15:13:56;7.00;;;4.82;;
9459;SDS011;4768;42.664;23.240;2023-06-05T15:16:23;5.28;;;4.78;;